Time;durP1;ratioP1;P1;durP2;ratioP2;P2;SDS_P1;SDS_P2;PMS_P1;PMS_P2;Temp;Humidity;BMP_temperature;BMP_pressure;BME280_temperature;BME280_humidity;BME280_pressure;Samples;Min_cycle;Max_cycle;Signal;HPM_P1;HPM_P2
2021/11/20 00:02:09;;;;;;;9.87;2.10;;;;;;;19.86;62.78;101414.72;5037763;28;20179;-73
2021/11/20 00:04:34;;;;;;;14.60;2.50;;;;;;;19.48;63.63;101417.84;5038211;28;20191;-73
2021/11/20 00:07:02;;;;;;;10.70;2.40;;;;;;;19.94;62.72;101415.81;5037508;28;20182;-73
2021/11/20 00:09:28;;;;;;;14.10;2.67;;;;;;;19.79;63.24;101411.66;5055319;28;20195;-72
2021/11/20 00:11:58;;;;;;;11.23;2.83;;;;;;;19.85;63.52;101413.88;5037089;28;20182;-72
2021/11/20 00:14:24;;;;;;;12.50;2.80;;;;;;;20.04;63.47;101412.31;5037155;28;20155;-73
2021/11/20 00:16:51;;;;;;;12.30;2.93;;;;;;;19.50;64.00;101416.72;5020386;28;20179;-73
2021/11/20 00:19:18;;;;;;;9.33;2.63;;;;;;;19.70;63.95;101415.16;5036710;28;20279;-73
2021/11/20 00:21:48;;;;;;;9.13;2.60;;;;;;;20.04;63.37;101415.03;5020859;28;20175;-72
2021/11/20 00:24:24;;;;;;;13.87;3.50;;;;;;;20.14;62.63;101405.16;5037210;28;20637;-73
2021/11/20 00:26:49;;;;;;;8.27;2.30;;;;;;;19.53;63.66;101451.69;5037058;28;20156;-72
2021/11/20 00:31:45;;;;;;;9.47;2.60;;;;;;;19.89;64.04;101438.84;5040439;28;20222;-73
2021/11/20 00:34:12;;;;;;;23.30;9.33;;;;;;;20.08;63.45;101435.50;5058055;28;20176;-73
2021/11/20 00:36:37;;;;;;;12.97;3.60;;;;;;;20.13;62.69;101436.81;5058232;28;20635;-73
2021/11/20 00:39:09;;;;;;;5.93;2.60;;;;;;;20.13;62.79;101447.66;5023785;28;20245;-72
2021/11/20 00:41:35;;;;;;;10.13;2.70;;;;;;;19.79;63.42;101437.91;5039483;28;20164;-73
2021/11/20 00:44:00;;;;;;;10.37;2.67;;;;;;;19.77;62.90;101458.81;5058339;28;20204;-72
2021/11/20 00:46:28;;;;;;;11.23;3.17;;;;;;;20.15;63.24;101440.25;5058382;28;20175;-73
2021/11/20 00:48:54;;;;;;;11.17;3.00;;;;;;;20.53;61.51;101433.50;5040263;28;20194;-72
2021/11/20 00:51:22;;;;;;;10.40;3.30;;;;;;;20.03;62.59;101430.44;5057497;28;20250;-73
2021/11/20 00:53:48;;;;;;;8.73;3.07;;;;;;;20.21;62.41;101447.00;5023608;28;20191;-73
2021/11/20 00:56:15;;;;;;;11.83;3.73;;;;;;;20.16;63.27;101446.53;5058151;28;20179;-73
2021/11/20 00:58:41;;;;;;;11.60;3.57;;;;;;;20.49;62.15;101446.44;5039611;28;20707;-73
2021/11/20 01:01:09;;;;;;;17.37;3.77;;;;;;;20.58;62.14;101442.09;5038969;28;20258;-73
2021/11/20 01:03:35;;;;;;;12.50;3.37;;;;;;;20.35;62.41;101448.56;5022442;28;20168;-73
2021/11/20 01:06:00;;;;;;;19.10;4.33;;;;;;;19.95;63.50;101454.59;5056232;28;20213;-73
2021/11/20 01:08:29;;;;;;;12.23;3.50;;;;;;;20.85;61.82;101456.00;5054675;28;20726;-72
2021/11/20 01:11:00;;;;;;;11.97;3.50;;;;;;;20.84;61.85;101451.56;5054291;28;20213;-73
2021/11/20 01:13:25;;;;;;;10.90;3.20;;;;;;;19.75;63.14;101468.94;5019677;28;20568;-73
2021/11/20 01:16:02;;;;;;;10.10;3.70;;;;;;;20.60;62.08;101450.94;5036433;28;20174;-73
2021/11/20 01:18:29;;;;;;;13.03;3.80;;;;;;;20.26;62.91;101452.91;5038939;28;20201;-73
2021/11/20 01:20:54;;;;;;;19.60;4.10;;;;;;;19.85;63.62;101443.66;5023120;28;20271;-73
2021/11/20 01:23:22;;;;;;;11.83;3.67;;;;;;;20.72;62.39;101447.19;5057525;28;20210;-73
2021/11/20 01:25:48;;;;;;;16.63;4.23;;;;;;;20.09;62.90;101450.75;5038651;28;20214;-73
2021/11/20 01:28:14;;;;;;;10.27;4.00;;;;;;;19.97;64.19;101469.72;5040085;28;20676;-73
2021/11/20 01:30:40;;;;;;;16.07;4.03;;;;;;;20.60;62.26;101448.25;5040237;28;20180;-72
2021/11/20 01:33:06;;;;;;;12.47;4.50;;;;;;;19.90;62.96;101463.09;5023403;28;20197;-72
2021/11/20 01:35:31;;;;;;;16.20;3.97;;;;;;;20.54;62.32;101457.75;5054574;28;20198;-73
2021/11/20 01:37:57;;;;;;;14.87;3.73;;;;;;;19.97;63.34;101458.03;5052131;28;20196;-72
2021/11/20 01:40:26;;;;;;;11.67;4.17;;;;;;;20.58;62.55;101442.09;5054551;28;20179;-73
2021/11/20 01:42:51;;;;;;;14.30;3.90;;;;;;;20.46;62.08;101435.88;5020337;28;20176;-72
2021/11/20 01:45:27;;;;;;;15.80;4.40;;;;;;;20.92;61.70;101443.63;5039106;28;20191;-72
2021/11/20 01:48:13;;;;;;;12.73;3.80;;;;;;;19.92;63.94;101453.00;5039268;28;20195;-73
2021/11/20 01:50:40;;;;;;;14.77;4.07;;;;;;;20.28;62.82;101446.38;5037762;28;20171;-73
2021/11/20 01:53:21;;;;;;;16.70;4.53;;;;;;;20.49;63.07;101429.31;5057319;28;20207;-73
2021/11/20 01:55:51;;;;;;;15.33;4.00;;;;;;;19.84;63.21;101447.34;5039270;28;20170;-73
2021/11/20 01:58:28;;;;;;;13.43;4.13;;;;;;;20.16;62.99;101428.44;5052928;28;20198;-73
2021/11/20 02:00:58;;;;;;;12.20;3.70;;;;;;;20.13;63.46;101441.38;5053039;28;20159;-73
2021/11/20 02:03:33;;;;;;;12.33;4.13;;;;;;;20.18;62.92;101442.72;5035296;28;20162;-73
2021/11/20 02:06:06;;;;;;;17.77;3.93;;;;;;;20.68;62.21;101434.03;5019558;28;20191;-72
2021/11/20 02:08:35;;;;;;;12.97;3.10;;;;;;;19.99;63.12;101447.94;5053722;28;20199;-73
2021/11/20 02:11:07;;;;;;;10.33;3.47;;;;;;;20.13;63.31;101423.28;5037587;28;20202;-73
2021/11/20 02:13:34;;;;;;;11.90;2.90;;;;;;;19.92;63.45;101444.88;5039341;28;20689;-73
2021/11/20 02:16:03;;;;;;;15.23;3.60;;;;;;;20.72;61.85;101427.34;5039691;28;20167;-73
2021/11/20 02:18:32;;;;;;;9.70;3.07;;;;;;;20.64;61.55;101430.72;5023819;28;20619;-73
2021/11/20 02:21:16;;;;;;;13.33;4.17;;;;;;;20.82;61.57;101423.72;5039473;28;20706;-73
2021/11/20 02:23:41;;;;;;;47.03;27.30;;;;;;;20.24;62.40;101422.38;5057190;28;20586;-73
2021/11/20 02:26:06;;;;;;;11.27;2.97;;;;;;;19.83;63.25;101414.97;5056809;28;20187;-73
2021/11/20 02:28:33;;;;;;;12.00;2.83;;;;;;;20.27;62.57;101405.84;5057498;28;20191;-73
2021/11/20 02:31:00;;;;;;;13.27;3.47;;;;;;;19.96;63.64;101411.13;5039942;28;20541;-73
2021/11/20 02:33:30;;;;;;;10.83;3.13;;;;;;;20.03;63.31;101395.19;5040363;28;20274;-73
2021/11/20 02:36:00;;;;;;;8.07;2.67;;;;;;;19.56;64.20;101427.06;5038999;28;20701;-72
2021/11/20 02:38:57;;;;;;;8.90;2.80;;;;;;;20.56;62.22;101397.97;5055378;28;20787;-72
2021/11/20 02:41:26;;;;;;;7.50;2.87;;;;;;;20.30;62.70;101409.16;4988537;28;20209;-73
2021/11/20 02:43:56;;;;;;;7.53;2.83;;;;;;;20.39;62.37;101409.34;5039127;28;20171;-73
2021/11/20 02:46:25;;;;;;;10.17;2.60;;;;;;;20.31;62.52;101412.72;5038724;28;20179;-73
2021/11/20 02:48:50;;;;;;;6.83;2.00;;;;;;;19.76;63.74;101425.47;5038823;28;20599;-73
2021/11/20 02:51:22;;;;;;;9.23;2.63;;;;;;;20.69;61.92;101428.47;5060078;28;20172;-72
2021/11/20 02:53:59;;;;;;;9.00;2.27;;;;;;;20.91;61.29;101422.06;5030612;28;20260;-72
2021/11/20 02:56:28;;;;;;;9.90;2.27;;;;;;;20.55;61.83;101421.53;5038932;28;20513;-72
2021/11/20 02:58:53;;;;;;;6.53;2.23;;;;;;;20.25;61.99;101416.81;5021679;28;20195;-71
2021/11/20 03:01:25;;;;;;;6.50;2.13;;;;;;;20.35;61.96;101414.19;5054965;28;20540;-71
2021/11/20 03:03:51;;;;;;;6.83;2.00;;;;;;;20.03;62.60;101426.84;5038097;28;20170;-71
2021/11/20 03:06:16;;;;;;;5.73;1.93;;;;;;;19.76;63.57;101427.31;5055368;28;20196;-73
2021/11/20 03:08:42;;;;;;;7.00;1.90;;;;;;;19.89;63.42;101425.31;5056315;28;20195;-71
2021/11/20 03:11:08;;;;;;;6.30;2.07;;;;;;;19.64;63.46;101440.84;5038705;28;20194;-71
2021/11/20 03:13:34;;;;;;;8.33;2.00;;;;;;;19.72;64.15;101424.00;5055238;28;20525;-72
2021/11/20 03:15:59;;;;;;;9.00;2.10;;;;;;;20.22;62.91;101424.34;5021534;28;20159;-71
2021/11/20 03:18:24;;;;;;;5.00;2.17;;;;;;;19.68;64.13;101419.78;5037637;28;20749;-72
2021/11/20 03:20:50;;;;;;;9.83;2.17;;;;;;;19.48;64.43;101451.19;5054237;28;20213;-70
2021/11/20 03:23:26;;;;;;;6.57;2.10;;;;;;;19.80;63.85;101416.09;5038888;28;20176;-71
2021/11/20 03:25:51;;;;;;;4.13;1.93;;;;;;;19.53;63.60;101424.63;5037694;28;20194;-72
2021/11/20 03:28:17;;;;;;;7.43;2.17;;;;;;;19.92;63.30;101427.75;5054594;28;20657;-71
2021/11/20 03:30:43;;;;;;;4.30;1.37;;;;;;;19.98;62.95;101427.25;5021024;28;20179;-72
2021/11/20 03:33:09;;;;;;;6.50;1.90;;;;;;;19.96;63.39;101418.38;5037790;28;20636;-72
2021/11/20 03:35:34;;;;;;;7.23;1.80;;;;;;;19.42;64.01;101419.19;5037887;28;20350;-71
2021/11/20 03:38:00;;;;;;;15.67;7.40;;;;;;;19.47;63.83;101403.44;5055725;28;20199;-72
2021/11/20 03:40:26;;;;;;;9.60;2.30;;;;;;;20.02;62.98;101411.59;5068308;28;20178;-72
2021/11/20 03:42:51;;;;;;;5.80;1.97;;;;;;;20.43;61.80;101410.84;5046471;28;20175;-73
2021/11/20 03:45:18;;;;;;;5.27;2.23;;;;;;;20.21;62.55;101418.06;5055140;28;20192;-72
2021/11/20 03:47:44;;;;;;;6.50;1.50;;;;;;;20.22;61.83;101408.94;5038154;28;20253;-72
2021/11/20 03:50:10;;;;;;;5.47;1.67;;;;;;;20.23;62.23;101416.09;5054444;28;20175;-72
2021/11/20 03:52:36;;;;;;;5.33;1.43;;;;;;;19.87;62.81;101416.44;5021357;28;20170;-72
2021/11/20 03:55:06;;;;;;;4.17;1.50;;;;;;;20.08;62.62;101413.81;5038055;28;20172;-71
2021/11/20 03:57:31;;;;;;;4.63;1.63;;;;;;;19.95;62.47;101411.25;5055518;28;20183;-72
2021/11/20 03:59:56;;;;;;;6.53;1.37;;;;;;;19.46;63.46;101417.09;5054041;28;20167;-72
2021/11/20 04:02:22;;;;;;;8.30;1.90;;;;;;;20.11;61.97;101411.69;5055406;28;20186;-72
2021/11/20 04:04:47;;;;;;;5.00;1.40;;;;;;;19.75;62.99;101396.66;5054284;28;20653;-72
2021/11/20 04:07:13;;;;;;;4.30;1.67;;;;;;;20.19;61.96;101392.94;5053944;28;20545;-72
2021/11/20 04:09:38;;;;;;;4.13;1.50;;;;;;;20.20;62.01;101400.09;5055338;28;20187;-72
2021/11/20 04:12:04;;;;;;;3.80;1.40;;;;;;;19.52;63.69;101414.75;5054790;28;20262;-72
2021/11/20 04:14:29;;;;;;;4.20;1.67;;;;;;;19.32;63.16;101410.06;5037329;28;20175;-71
2021/11/20 04:16:55;;;;;;;3.17;1.10;;;;;;;20.06;62.24;101397.66;5055134;28;20183;-72
2021/11/20 04:19:21;;;;;;;6.43;2.60;;;;;;;20.11;62.71;101405.44;5053729;28;20203;-72
2021/11/20 04:21:47;;;;;;;7.77;1.30;;;;;;;20.05;62.38;101401.34;5036987;28;20195;-72
2021/11/20 04:24:13;;;;;;;3.30;0.90;;;;;;;19.72;63.13;101396.06;5020202;28;20171;-72
2021/11/20 04:26:39;;;;;;;4.77;1.37;;;;;;;19.83;62.74;101420.41;5036685;28;20180;-72
2021/11/20 04:29:05;;;;;;;2.43;1.00;;;;;;;19.98;62.36;101402.84;5054509;28;20207;-72
2021/11/20 04:31:30;;;;;;;5.30;1.37;;;;;;;19.44;63.48;101403.69;5019998;28;20722;-73
2021/11/20 04:33:56;;;;;;;3.10;1.20;;;;;;;20.00;62.45;101387.34;5052376;28;20183;-72
2021/11/20 04:36:22;;;;;;;5.00;1.50;;;;;;;19.87;62.82;101381.22;5055076;28;20704;-73
2021/11/20 04:38:48;;;;;;;5.27;1.00;;;;;;;19.64;63.05;101402.94;5054067;28;20222;-72
2021/11/20 04:41:14;;;;;;;5.43;1.23;;;;;;;20.05;62.31;101406.78;5054532;28;20218;-72
2021/11/20 04:43:41;;;;;;;2.17;1.17;;;;;;;20.15;62.60;101390.63;5036676;28;20179;-72
2021/11/20 04:46:06;;;;;;;4.07;1.37;;;;;;;20.19;62.73;101398.38;5036436;28;20676;-72
2021/11/20 04:48:32;;;;;;;7.43;1.37;;;;;;;19.84;63.07;101414.00;5036216;28;20219;-72
2021/11/20 04:50:58;;;;;;;4.63;2.00;;;;;;;20.34;62.08;101387.19;5053283;28;20630;-73
2021/11/20 04:53:25;;;;;;;7.57;1.10;;;;;;;20.02;63.18;101406.16;5019782;28;20190;-72
2021/11/20 04:55:52;;;;;;;3.33;1.00;;;;;;;20.69;61.78;101395.06;5036234;28;20179;-73
2021/11/20 04:58:18;;;;;;;1.03;0.80;;;;;;;20.40;61.82;101394.84;5052749;28;20281;-73
2021/11/20 05:00:48;;;;;;;5.77;1.97;;;;;;;19.95;63.36;101401.28;5053103;28;20211;-74
2021/11/20 05:03:13;;;;;;;5.97;1.57;;;;;;;20.48;62.18;101401.34;5054806;28;20164;-73
2021/11/20 05:05:41;;;;;;;4.50;1.50;;;;;;;20.43;62.33;101400.00;5053754;28;20203;-73
2021/11/20 05:08:07;;;;;;;3.87;1.30;;;;;;;20.20;61.93;101389.25;5036827;28;20195;-72
2021/11/20 05:10:33;;;;;;;4.03;1.63;;;;;;;20.05;62.46;101385.09;5044436;28;20160;-74
2021/11/20 05:12:59;;;;;;;2.77;1.13;;;;;;;19.85;63.62;101391.34;5029405;28;20233;-74
2021/11/20 05:15:25;;;;;;;3.03;1.33;;;;;;;20.20;62.55;101381.13;5036798;28;20207;-74
2021/11/20 05:17:51;;;;;;;2.30;1.20;;;;;;;19.97;62.80;101371.34;5020321;28;20693;-73
2021/11/20 05:20:16;;;;;;;3.53;1.67;;;;;;;19.36;63.73;101368.28;5055401;28;20176;-72
2021/11/20 05:22:42;;;;;;;3.43;1.60;;;;;;;19.54;63.84;101385.72;5063202;28;20171;-73
2021/11/20 05:25:08;;;;;;;2.90;1.20;;;;;;;19.21;64.60;101392.00;5038042;28;20191;-73
2021/11/20 05:27:34;;;;;;;4.37;1.20;;;;;;;19.45;64.09;101391.88;5037287;28;20229;-73
2021/11/20 05:30:05;;;;;;;5.47;1.50;;;;;;;19.26;64.16;101380.81;5054985;28;20704;-74
2021/11/20 05:32:30;;;;;;;2.27;1.37;;;;;;;19.40;63.88;101385.97;5054310;28;20156;-73
2021/11/20 05:34:55;;;;;;;5.17;1.40;;;;;;;19.20;64.45;101370.47;5036421;28;20193;-72
2021/11/20 05:37:21;;;;;;;5.03;1.87;;;;;;;19.20;63.99;101375.88;5054038;28;20164;-72
2021/11/20 05:39:46;;;;;;;7.07;1.97;;;;;;;19.18;64.38;101376.00;5053831;28;20175;-72
2021/11/20 05:42:12;;;;;;;2.53;1.30;;;;;;;19.42;63.95;101383.16;5052675;28;20168;-72
2021/11/20 05:44:37;;;;;;;5.07;1.27;;;;;;;18.94;64.38;101376.13;5051766;28;20234;-72
2021/11/20 05:47:03;;;;;;;6.27;1.47;;;;;;;19.22;63.59;101374.78;5035521;28;20546;-72
2021/11/20 05:49:31;;;;;;;3.03;1.00;;;;;;;19.56;63.24;101391.03;5035827;28;20664;-72
2021/11/20 05:51:56;;;;;;;2.50;1.10;;;;;;;19.50;62.76;101372.53;5035793;28;20172;-72
2021/11/20 05:54:23;;;;;;;3.03;1.17;;;;;;;19.25;62.98;101381.78;5052677;28;20541;-73
2021/11/20 05:56:48;;;;;;;2.40;1.20;;;;;;;19.77;61.40;101377.56;5035662;28;20164;-72
2021/11/20 05:59:14;;;;;;;5.57;1.20;;;;;;;19.89;60.94;101373.84;5053232;28;20198;-73
2021/11/20 06:01:39;;;;;;;2.60;1.00;;;;;;;20.15;60.12;101361.69;5035640;28;20171;-74
2021/11/20 06:04:05;;;;;;;4.07;0.90;;;;;;;19.33;61.80;101384.75;5035715;28;20171;-74
2021/11/20 06:06:30;;;;;;;4.73;1.20;;;;;;;19.73;60.85;101362.56;5052096;28;20261;-74
2021/11/20 06:08:56;;;;;;;4.13;1.83;;;;;;;20.54;59.06;101372.84;5035627;28;20195;-74
2021/11/20 06:11:21;;;;;;;4.00;1.60;;;;;;;19.95;60.35;101376.03;5053356;28;20656;-73
2021/11/20 06:13:46;;;;;;;7.50;3.43;;;;;;;20.25;59.76;101373.44;5052975;28;20190;-75
2021/11/20 06:16:12;;;;;;;5.97;2.23;;;;;;;20.46;60.18;101380.78;5035407;28;20186;-73
2021/11/20 06:18:38;;;;;;;5.47;1.50;;;;;;;20.38;59.95;101372.38;5053492;28;20708;-73
2021/11/20 06:21:04;;;;;;;2.33;1.40;;;;;;;20.33;61.05;101377.34;5052375;28;20171;-73
2021/11/20 06:23:32;;;;;;;3.63;1.70;;;;;;;20.26;61.44;101377.00;5035977;28;20179;-74
2021/11/20 06:25:58;;;;;;;5.70;1.50;;;;;;;20.10;61.52;101379.31;5052960;28;20614;-73
2021/11/20 06:28:24;;;;;;;4.30;1.57;;;;;;;19.96;61.63;101373.19;5053283;28;20201;-73
2021/11/20 06:30:50;;;;;;;3.47;1.50;;;;;;;19.64;62.46;101391.25;5035534;28;20171;-75
2021/11/20 06:33:15;;;;;;;3.53;1.63;;;;;;;19.48;62.54;101378.09;5053597;28;20172;-74
2021/11/20 06:35:41;;;;;;;4.70;1.50;;;;;;;19.82;61.31;101357.25;5035755;28;20218;-74
2021/11/20 06:38:06;;;;;;;5.20;1.30;;;;;;;20.03;60.95;101370.81;5054044;28;20202;-74
2021/11/20 06:40:35;;;;;;;3.17;1.33;;;;;;;20.29;60.55;101383.03;5053103;28;20220;-74
2021/11/20 06:43:03;;;;;;;4.67;1.57;;;;;;;20.42;60.02;101385.59;5019639;28;20234;-74
2021/11/20 06:45:32;;;;;;;3.90;2.23;;;;;;;19.88;61.01;101393.78;5053548;28;20202;-74
2021/11/20 06:47:58;;;;;;;3.63;1.53;;;;;;;19.91;60.47;101386.25;5018603;28;20196;-74
2021/11/20 06:50:25;;;;;;;2.53;0.93;;;;;;;19.77;61.18;101385.69;5052341;28;20172;-75
2021/11/20 06:52:51;;;;;;;2.63;1.27;;;;;;;20.04;60.31;101388.78;5036172;28;20258;-74
2021/11/20 06:55:17;;;;;;;3.47;1.10;;;;;;;19.76;60.86;101383.97;5038401;28;20206;-74
2021/11/20 07:00:26;;;;;;;3.73;1.00;;;;;;;20.54;59.09;101375.56;5059200;28;20250;-75
2021/11/20 07:02:55;;;;;;;4.37;1.30;;;;;;;21.02;58.00;101375.84;5048575;28;20160;-73
2021/11/20 07:05:20;;;;;;;3.53;1.00;;;;;;;20.19;59.34;101392.94;5068704;28;20195;-74
2021/11/20 07:07:46;;;;;;;3.90;0.87;;;;;;;20.88;58.34;101382.47;5049313;28;20187;-73
2021/11/20 07:10:14;;;;;;;2.10;0.83;;;;;;;21.10;57.55;101377.84;5048969;28;20254;-73
2021/11/20 07:12:40;;;;;;;3.60;1.20;;;;;;;20.43;58.57;101383.72;5072240;28;20171;-73
2021/11/20 07:15:06;;;;;;;2.73;0.80;;;;;;;21.05;57.51;101385.56;5054676;28;20208;-75
2021/11/20 07:17:31;;;;;;;3.30;0.80;;;;;;;20.31;58.41;101396.47;5050919;28;20171;-72
2021/11/20 07:19:56;;;;;;;4.90;1.13;;;;;;;20.20;58.76;101400.09;5066382;28;20164;-74
2021/11/20 07:22:22;;;;;;;3.30;0.73;;;;;;;20.46;58.73;101397.06;5050910;28;20171;-73
2021/11/20 07:24:47;;;;;;;2.17;0.70;;;;;;;20.34;58.78;101401.63;5077644;28;20199;-74
2021/11/20 07:27:12;;;;;;;6.77;1.10;;;;;;;21.04;57.73;101383.84;5055016;28;20186;-74
2021/11/20 07:29:38;;;;;;;3.23;0.83;;;;;;;20.26;59.20;101386.00;5072334;28;20223;-73
2021/11/20 07:32:04;;;;;;;2.80;0.73;;;;;;;20.56;58.63;101395.25;5065458;28;20175;-73
2021/11/20 07:34:29;;;;;;;2.90;0.70;;;;;;;19.86;59.78;101383.09;5025587;28;20178;-73
2021/11/20 07:36:56;;;;;;;3.70;1.00;;;;;;;20.04;59.09;101369.81;5056441;28;20176;-74
2021/11/20 07:39:22;;;;;;;5.70;1.50;;;;;;;19.82;59.56;101383.47;5054587;28;20245;-73
2021/11/20 07:41:47;;;;;;;3.33;1.37;;;;;;;20.26;58.45;101367.03;5054672;28;20171;-75
2021/11/20 07:44:13;;;;;;;3.00;1.30;;;;;;;20.17;59.06;101375.94;5037960;28;20617;-74
2021/11/20 07:46:39;;;;;;;6.03;2.17;;;;;;;20.49;58.09;101367.81;5038304;28;20180;-74
2021/11/20 07:49:05;;;;;;;3.63;1.53;;;;;;;21.26;56.76;101363.84;5055431;28;20199;-73
2021/11/20 07:51:30;;;;;;;3.97;1.70;;;;;;;21.03;56.90;101361.25;5038114;28;20207;-73
2021/11/20 07:53:56;;;;;;;2.43;1.07;;;;;;;20.97;56.89;101352.81;5037798;28;20172;-74
2021/11/20 07:56:22;;;;;;;3.40;1.80;;;;;;;20.64;58.03;101376.47;5055262;28;20214;-74
2021/11/20 07:58:48;;;;;;;2.60;0.90;;;;;;;21.18;56.96;101367.16;5022162;28;20203;-74
2021/11/20 08:01:14;;;;;;;2.30;0.80;;;;;;;20.94;57.20;101353.09;5020836;28;20194;-73
2021/11/20 08:03:40;;;;;;;2.30;0.93;;;;;;;21.03;56.96;101355.84;5037438;28;20207;-74
2021/11/20 08:06:05;;;;;;;4.83;1.20;;;;;;;21.32;56.58;101353.28;5020670;28;20234;-74
2021/11/20 08:08:31;;;;;;;3.33;2.07;;;;;;;21.02;56.60;101354.13;5053031;28;20191;-74
2021/11/20 08:10:57;;;;;;;2.17;1.17;;;;;;;20.95;56.81;101343.94;5054946;28;20175;-73
2021/11/20 08:13:22;;;;;;;8.53;4.53;;;;;;;21.24;55.90;101342.25;5055241;28;20229;-74
2021/11/20 08:15:48;;;;;;;4.83;2.70;;;;;;;21.17;56.46;101354.59;5020890;28;20202;-74
2021/11/20 08:18:13;;;;;;;3.60;1.40;;;;;;;21.25;56.00;101340.41;5063351;22;21694;-72
2021/11/20 08:20:43;;;;;;;3.20;1.07;;;;;;;21.10;56.95;101348.88;4971700;28;20195;-73
2021/11/20 08:23:10;;;;;;;4.27;1.30;;;;;;;21.20;56.71;101354.34;4955627;28;20179;-72
2021/11/20 08:25:38;;;;;;;3.47;0.97;;;;;;;20.94;57.31;101339.53;4955643;28;20575;-71
2021/11/20 08:28:04;;;;;;;4.13;1.10;;;;;;;21.78;55.76;101344.50;4955803;28;20183;-70
2021/11/20 08:30:30;;;;;;;5.63;2.00;;;;;;;20.51;57.81;101337.88;4972325;28;20193;-73
2021/11/20 08:32:56;;;;;;;7.03;2.70;;;;;;;20.99;56.87;101334.53;4971443;28;20648;-73
2021/11/20 08:35:22;;;;;;;7.70;2.43;;;;;;;21.52;56.07;101346.88;4955453;28;20174;-72
2021/11/20 08:37:48;;;;;;;8.33;2.10;;;;;;;21.23;56.29;101343.25;4971783;28;20529;-72
2021/11/20 08:40:18;;;;;;;3.57;1.60;;;;;;;21.53;55.79;101329.59;4971896;28;20216;-73
2021/11/20 08:42:43;;;;;;;2.40;1.40;;;;;;;20.71;57.30;101326.13;4955895;28;20200;-72
2021/11/20 08:45:14;;;;;;;6.00;1.60;;;;;;;20.12;58.38;101342.97;4971595;28;20190;-72
2021/11/20 08:47:39;;;;;;;9.17;2.90;;;;;;;20.56;57.56;101331.03;4955469;28;20186;-71
2021/11/20 08:50:08;;;;;;;4.97;1.80;;;;;;;20.79;57.16;101326.28;4971299;28;20204;-70
2021/11/20 08:52:33;;;;;;;5.50;2.20;;;;;;;20.39;57.48;101318.03;4971595;28;20182;-72
2021/11/20 08:54:59;;;;;;;8.13;1.60;;;;;;;20.78;56.78;101308.31;4955386;28;20174;-71
2021/11/20 08:57:24;;;;;;;9.93;1.80;;;;;;;20.52;56.85;101307.03;4971337;28;20174;-72
2021/11/20 08:59:50;;;;;;;6.77;1.80;;;;;;;21.95;54.40;101310.34;4955231;28;20194;-72
2021/11/20 09:02:23;;;;;;;5.83;1.97;;;;;;;21.87;54.27;101306.63;4971136;28;20171;-72
2021/11/20 09:05:22;;;;;;;7.40;1.60;;;;;;;21.82;54.58;101301.63;4971386;28;20182;-72
2021/11/20 09:07:51;;;;;;;4.20;1.60;;;;;;;21.65;54.47;101299.63;4960159;28;20220;-73
2021/11/20 09:10:24;;;;;;;6.77;1.70;;;;;;;20.94;55.82;101298.81;4955335;28;20182;-71
2021/11/20 09:12:57;;;;;;;5.57;1.87;;;;;;;20.83;56.08;101305.22;4954949;28;20178;-72
2021/11/20 09:15:34;;;;;;;10.73;1.93;;;;;;;20.76;56.30;101302.16;4954869;28;20208;-72
2021/11/20 09:18:00;;;;;;;7.50;2.03;;;;;;;21.09;55.26;101294.72;4954474;28;20563;-72
2021/11/20 09:20:27;;;;;;;6.37;1.70;;;;;;;20.97;56.04;101290.41;4971002;28;20170;-72
2021/11/20 09:22:52;;;;;;;9.40;2.70;;;;;;;20.21;56.92;101285.25;4955544;28;20179;-72
2021/11/20 09:25:18;;;;;;;10.60;2.13;;;;;;;21.48;54.71;101274.84;4955364;28;20228;-72
2021/11/20 09:27:43;;;;;;;8.77;2.00;;;;;;;20.97;55.48;101276.84;4971588;28;20273;-71
2021/11/20 09:30:18;;;;;;;7.93;2.77;;;;;;;20.88;55.45;101276.66;4955477;28;20200;-71
2021/11/20 09:32:43;;;;;;;6.20;1.83;;;;;;;21.31;54.96;101274.69;4954931;28;20176;-72
2021/11/20 09:35:09;;;;;;;8.73;1.87;;;;;;;20.35;57.04;101281.34;4956090;28;20170;-71
2021/11/20 09:37:34;;;;;;;3.57;1.90;;;;;;;20.90;55.38;101266.53;4974652;28;20175;-72
2021/11/20 09:40:01;;;;;;;9.43;3.43;;;;;;;21.26;55.37;101290.53;4956320;28;20293;-71
2021/11/20 09:42:40;;;;;;;7.27;2.10;;;;;;;21.72;54.56;101285.31;4971073;28;20253;-71
2021/11/20 09:45:12;;;;;;;10.60;2.67;;;;;;;21.51;54.75;101271.84;4971157;28;20198;-72
2021/11/20 09:47:50;;;;;;;8.97;2.90;;;;;;;21.37;55.22;101279.56;4954739;28;20269;-72
2021/11/20 09:50:34;;;;;;;10.20;3.03;;;;;;;21.52;54.97;101276.28;4970868;28;20543;-72
2021/11/20 09:52:59;;;;;;;9.97;3.57;;;;;;;20.62;56.06;101282.69;4955079;28;20182;-71
2021/11/20 09:55:40;;;;;;;8.47;2.87;;;;;;;20.48;56.97;101289.31;4970404;28;20523;-72
2021/11/20 09:58:22;;;;;;;7.07;3.20;;;;;;;20.63;56.26;101281.69;4972000;28;20163;-72
2021/11/20 10:00:59;;;;;;;11.10;3.57;;;;;;;20.74;55.89;101277.03;4954310;28;20232;-71
2021/11/20 10:03:40;;;;;;;9.60;4.10;;;;;;;20.52;56.67;101264.53;4970167;28;20544;-71
2021/11/20 10:06:27;;;;;;;9.53;3.90;;;;;;;20.83;56.16;101267.22;4954198;28;20198;-72
2021/11/20 10:09:12;;;;;;;8.70;3.33;;;;;;;20.98;55.54;101265.00;4970164;28;20198;-71
2021/11/20 10:11:55;;;;;;;8.23;3.77;;;;;;;20.81;56.26;101275.50;4954244;28;20528;-71
2021/11/20 10:15:02;;;;;;;9.80;3.90;;;;;;;21.47;54.72;101270.41;4970423;28;20165;-71
2021/11/20 10:17:39;;;;;;;9.33;3.73;;;;;;;20.54;56.19;101261.66;4900078;28;20175;-71
2021/11/20 10:20:28;;;;;;;9.20;3.90;;;;;;;20.36;56.63;101264.09;4966590;28;20711;-71
2021/11/20 10:23:03;;;;;;;8.33;3.70;;;;;;;20.81;55.80;101242.97;4970397;28;20166;-72
2021/11/20 10:25:47;;;;;;;9.37;3.50;;;;;;;20.56;56.13;101248.84;4970074;28;20217;-71
2021/11/20 10:28:50;;;;;;;7.50;3.33;;;;;;;20.92;55.92;101250.97;4969893;28;20198;-71
2021/11/20 10:31:20;;;;;;;11.83;4.17;;;;;;;20.16;56.77;101246.88;4971087;28;20241;-72
2021/11/20 10:33:50;;;;;;;9.13;3.87;;;;;;;20.53;56.21;101246.41;4974682;28;20179;-72
2021/11/20 10:36:32;;;;;;;8.77;4.00;;;;;;;20.57;56.34;101228.84;4957357;28;20175;-72
2021/11/20 10:39:09;;;;;;;9.77;3.93;;;;;;;20.71;56.23;101231.19;4974414;28;20277;-72
2021/11/20 10:41:37;;;;;;;12.83;4.40;;;;;;;19.87;57.86;101224.13;4959007;28;20635;-75
2021/11/20 10:44:23;;;;;;;9.83;4.47;;;;;;;20.84;56.00;101218.25;4960150;28;20520;-72
2021/11/20 10:47:05;;;;;;;12.10;3.77;;;;;;;21.11;55.61;101230.31;4973519;28;20273;-72
2021/11/20 10:49:53;;;;;;;12.50;4.13;;;;;;;20.96;55.93;101213.56;4958380;28;20202;-71
2021/11/20 10:52:44;;;;;;;10.63;4.17;;;;;;;20.43;56.62;101215.66;4976087;28;20238;-72
2021/11/20 10:55:30;;;;;;;8.37;3.93;;;;;;;21.34;54.97;101218.25;4977535;28;20199;-71
2021/11/20 10:58:01;;;;;;;6.87;3.40;;;;;;;20.38;56.64;101217.88;4978795;28;20171;-71
2021/11/20 11:00:33;;;;;;;8.97;3.40;;;;;;;20.10;57.36;101209.47;4975376;28;20179;-72
2021/11/20 11:03:22;;;;;;;16.27;4.97;;;;;;;20.23;57.14;101204.69;4976716;28;20174;-72
2021/11/20 11:06:15;;;;;;;8.53;4.00;;;;;;;20.04;57.92;101209.13;4960094;28;20203;-73
2021/11/20 11:08:54;;;;;;;12.10;4.20;;;;;;;20.22;57.11;101191.28;4976824;28;20195;-72
2021/11/20 11:11:33;;;;;;;9.70;4.43;;;;;;;20.62;56.40;101183.19;4977683;28;20158;-72
2021/11/20 11:14:13;;;;;;;7.43;4.00;;;;;;;20.20;57.49;101194.13;4961312;28;20636;-71
2021/11/20 11:16:45;;;;;;;13.93;5.13;;;;;;;20.13;57.58;101183.97;4976342;28;20170;-72
2021/11/20 11:19:38;;;;;;;10.93;4.73;;;;;;;19.99;58.17;101166.16;4975360;28;20198;-71
2021/11/20 11:22:29;;;;;;;11.50;4.53;;;;;;;20.42;57.20;101160.56;4976948;28;20171;-73
2021/11/20 11:25:10;;;;;;;7.70;4.93;;;;;;;19.94;58.39;101165.72;4975835;28;20179;-72
2021/11/20 11:28:08;;;;;;;9.33;4.50;;;;;;;20.43;56.88;101159.56;4974716;28;20179;-73
2021/11/20 11:31:09;;;;;;;6.30;4.20;;;;;;;21.14;56.08;101152.19;4975822;28;20181;-71
2021/11/20 11:33:37;;;;;;;10.13;4.90;;;;;;;19.61;58.73;101139.69;4958995;28;20171;-71
2021/11/20 11:36:35;;;;;;;11.07;4.50;;;;;;;20.58;56.76;101151.94;4976292;28;20178;-73
2021/11/20 11:39:14;;;;;;;11.17;5.23;;;;;;;21.17;55.52;101140.19;4969992;28;20206;-71
2021/11/20 11:42:10;;;;;;;7.40;4.57;;;;;;;20.62;56.10;101139.81;4975837;28;20170;-72